< Typhoon 201319 2013 Season Typhoon 201321 >
Typhoon 201320 (PABUK)
General InformationTrack Information on Google MapsDetailed Wind InformationForecast History on Google MapsAccess Analytics MapList of All Images || NewsDisaster Info.WeblogTrackbackTyphoon FrontTwiphoonTyphoon Now!Typhoon ImaginationDisaster Info. XMLResourceGoogle EarthGE AnimationAtom FeedGeoJSON
Detalied Best Track (Time Zone = UTC)
Year Month Day Hour Lat. Long. Pressure (hPa) Wind (kt) Class Image Chart
2013 9 19 06 14.0 148.5 1004 0 2 Image Chart
2013 9 19 12 14.9 149.0 1002 0 2 Image Chart
2013 9 19 18 15.8 149.3 1002 0 2 Image Chart
2013 9 20 00 16.9 149.7 1002 0 2 Image Chart
2013 9 20 06 18.6 149.5 1002 0 2 Image Chart
2013 9 20 12 19.3 148.2 1002 0 2 Image Chart
2013 9 20 18 19.7 146.8 1000 0 2 Image Chart
2013 9 21 00 19.7 145.9 998 0 2 Image Chart
2013 9 21 06 19.8 145.2 996 35 3 Image Chart
2013 9 21 12 20.0 144.7 992 40 3 Image Chart
2013 9 21 18 20.6 144.1 990 40 3 Image Chart
2013 9 22 00 21.3 143.3 990 45 3 Image Chart
2013 9 22 06 22.0 142.7 985 50 4 Image Chart
2013 9 22 12 22.5 141.9 980 50 4 Image Chart
2013 9 22 18 23.2 141.6 975 50 4 Image Chart
2013 9 23 00 23.8 141.6 975 50 4 Image Chart
2013 9 23 06 24.8 141.2 970 55 4 Image Chart
2013 9 23 12 25.1 140.8 970 55 4 Image Chart
2013 9 23 18 25.3 140.5 970 55 4 Image Chart
2013 9 24 00 25.8 139.9 970 55 4 Image Chart
2013 9 24 06 26.2 139.4 970 55 4 Image Chart
2013 9 24 12 26.7 138.9 965 60 4 Image Chart
2013 9 24 18 27.5 138.7 965 60 4 Image Chart
2013 9 25 00 28.4 138.8 965 60 4 Image Chart
2013 9 25 06 29.3 139.0 965 60 4 Image Chart
2013 9 25 12 30.2 140.1 965 60 4 Image Chart
2013 9 25 18 31.0 141.6 965 60 4 Image Chart
2013 9 26 00 32.2 143.5 965 60 4 Image Chart
2013 9 26 06 33.8 145.2 970 60 4 Image Chart
2013 9 26 12 35.0 147.2 970 60 4 Image Chart
2013 9 26 18 36.9 149.8 975 60 4 Image Chart
2013 9 27 00 39.9 152.7 980 0 6 Image Chart
2013 9 27 06 42.2 156.4 984 0 6 Image Chart
2013 9 27 12 45.0 160.0 988 0 6 Image Chart
2013 9 27 18 47.0 162.9 990 0 6 Image Chart
2013 9 28 00 47.6 163.9 996 0 6 Image Chart
2013 9 28 06 48.8 167.4 1000 0 6 Image Chart
2013 9 28 12 49.4 171.8 1002 0 6 Image Chart
2013 9 28 18 49.6 177.3 1008 0 6 Image Chart
2013 9 29 00 49.3 181.5 1012 0 6 Image Chart
Japan Meteorological Agency Best Track Data | Correction Date : 2013-10-23
< Typhoon 201319 2013 Season Typhoon 201321 >

Help